Time;durP1;ratioP1;P1;durP2;ratioP2;P2;SDS_P1;SDS_P2;PMS_P1;PMS_P2;Temp;Humidity;BMP_temperature;BMP_pressure;BME280_temperature;BME280_humidity;BME280_pressure;Samples;Min_cycle;Max_cycle;Signal;HPM_P1;HPM_P2
2022/07/11 00:00:08;;;;;;;1.35;0.98;;;;;;;12.83;100.00;98889.88;4413163;32;20023;-79
2022/07/11 00:02:55;;;;;;;2.45;1.42;;;;;;;12.67;100.00;98853.91;4425627;32;20186;-77
2022/07/11 00:05:22;;;;;;;2.58;2.35;;;;;;;12.91;100.00;98883.94;4429667;32;21893;-78
2022/07/11 00:07:49;;;;;;;5.35;1.42;;;;;;;12.64;100.00;98852.53;4402834;32;20060;-79
2022/07/11 00:10:15;;;;;;;2.05;1.30;;;;;;;12.56;100.00;98844.97;4402956;32;20060;-78
2022/07/11 00:12:41;;;;;;;2.17;1.00;;;;;;;12.68;100.00;98883.34;4403070;32;20108;-77
2022/07/11 00:15:08;;;;;;;1.85;1.23;;;;;;;12.76;100.00;98886.59;4416224;32;20046;-79
2022/07/11 00:17:35;;;;;;;2.97;1.23;;;;;;;12.69;100.00;98893.06;4416929;32;20342;-79
2022/07/11 00:20:01;;;;;;;2.10;1.50;;;;;;;12.40;100.00;98837.91;4417677;32;20043;-78
2022/07/11 00:22:28;;;;;;;7.32;1.83;;;;;;;12.42;100.00;98831.16;4403301;32;20042;-78
2022/07/11 00:25:31;;;;;;;6.10;3.08;;;;;;;12.75;100.00;98890.38;4417355;32;20433;-77
2022/07/11 00:27:58;;;;;;;12.63;1.45;;;;;;;12.80;100.00;98890.41;4417563;32;20101;-78
2022/07/11 00:30:24;;;;;;;1.20;1.20;;;;;;;12.54;100.00;98852.53;4417389;32;20042;-77
2022/07/11 00:32:50;;;;;;;1.50;1.40;;;;;;;12.59;100.00;98857.94;4417081;32;20068;-77
2022/07/11 00:35:17;;;;;;;2.72;1.40;;;;;;;12.34;100.00;98820.88;4416062;32;20371;-77
2022/07/11 00:37:43;;;;;;;1.15;1.15;;;;;;;12.57;100.00;98841.16;4403602;32;20086;-77
2022/07/11 00:40:10;;;;;;;3.03;1.30;;;;;;;12.61;100.00;98847.69;4417256;32;20031;-78
2022/07/11 00:42:37;;;;;;;3.58;1.60;;;;;;;12.97;100.00;98888.25;4402283;32;20042;-78
2022/07/11 00:45:03;;;;;;;2.62;1.15;;;;;;;12.78;100.00;98841.22;4416745;32;20164;-78
2022/07/11 00:47:35;;;;;;;1.75;1.23;;;;;;;13.02;100.00;98877.44;4416765;32;20054;-77
2022/07/11 00:50:03;;;;;;;4.75;1.60;;;;;;;12.77;100.00;98856.63;4401846;32;20344;-77
2022/07/11 00:52:36;;;;;;;1.60;1.27;;;;;;;13.03;100.00;98897.97;4416512;32;20198;-77
2022/07/11 00:55:04;;;;;;;5.30;1.17;;;;;;;12.94;100.00;98896.91;4415607;32;20064;-77
2022/07/11 00:57:33;;;;;;;1.92;1.85;;;;;;;12.84;100.00;98868.00;4417132;32;20084;-79
2022/07/11 00:59:59;;;;;;;1.60;1.30;;;;;;;12.81;100.00;98843.37;4415617;32;20023;-79
2022/07/11 01:02:26;;;;;;;4.22;1.27;;;;;;;12.89;100.00;98864.44;4416649;32;20347;-78
2022/07/11 01:04:52;;;;;;;2.20;1.50;;;;;;;13.07;100.00;98893.66;4403104;32;20363;-77
2022/07/11 01:07:19;;;;;;;2.12;1.15;;;;;;;13.11;100.00;98888.53;4404355;32;20080;-77
2022/07/11 01:09:45;;;;;;;4.12;1.40;;;;;;;13.08;100.00;98895.31;4430521;32;20076;-77
2022/07/11 01:12:12;;;;;;;4.00;1.52;;;;;;;13.08;100.00;98889.91;4436095;32;20059;-78
2022/07/11 01:14:38;;;;;;;4.20;1.40;;;;;;;12.72;100.00;98843.91;4446160;32;20068;-78
2022/07/11 01:17:04;;;;;;;6.65;1.67;;;;;;;12.49;100.00;98812.00;4433744;32;20037;-77
2022/07/11 01:19:31;;;;;;;6.43;1.77;;;;;;;12.83;100.00;98843.94;4447405;32;20041;-78
2022/07/11 01:22:04;;;;;;;3.97;1.77;;;;;;;12.75;100.00;98830.94;4432368;32;20425;-78
2022/07/11 01:24:31;;;;;;;7.35;1.70;;;;;;;12.65;100.00;98827.16;4446456;32;20045;-77
2022/07/11 01:26:57;;;;;;;4.43;1.33;;;;;;;11.89;100.00;98717.91;4447456;32;20100;-77
2022/07/11 01:29:24;;;;;;;4.03;1.67;;;;;;;13.06;100.00;98875.81;4428091;32;20216;-76
2022/07/11 01:31:51;;;;;;;3.92;1.62;;;;;;;12.68;100.00;98829.34;4412790;32;20034;-77
2022/07/11 01:34:17;;;;;;;4.10;1.33;;;;;;;12.88;100.00;98876.34;4429053;32;20094;-76
2022/07/11 01:36:44;;;;;;;5.18;1.50;;;;;;;12.92;100.00;98869.31;4429607;32;20080;-77
2022/07/11 01:39:10;;;;;;;2.58;1.40;;;;;;;12.86;100.00;98827.16;4402958;32;20038;-78
2022/07/11 01:41:37;;;;;;;2.25;1.23;;;;;;;13.01;100.00;98862.31;4415346;32;20041;-77
2022/07/11 01:44:03;;;;;;;2.42;1.73;;;;;;;13.01;100.00;98865.00;4401815;32;20068;-77
2022/07/11 01:46:29;;;;;;;2.65;1.50;;;;;;;13.07;100.00;98865.84;4401397;32;20038;-78
2022/07/11 01:48:56;;;;;;;3.58;1.42;;;;;;;13.16;100.00;98858.81;4416188;32;20058;-77
2022/07/11 01:51:23;;;;;;;1.67;1.58;;;;;;;13.18;100.00;98850.41;4402157;32;20096;-77
2022/07/11 01:53:50;;;;;;;8.43;1.55;;;;;;;12.89;100.00;98800.44;4422690;32;20439;-77
2022/07/11 01:56:16;;;;;;;2.45;1.37;;;;;;;13.02;100.00;98804.47;4440109;32;20060;-77
2022/07/11 01:58:42;;;;;;;4.45;1.70;;;;;;;13.15;100.00;98848.28;4441058;32;20432;-79
2022/07/11 02:01:09;;;;;;;3.78;1.50;;;;;;;13.19;100.00;98847.44;4382701;32;20035;-78
2022/07/11 02:03:38;;;;;;;6.78;1.70;;;;;;;13.16;100.00;98853.41;4379599;32;20043;-77
2022/07/11 02:06:05;;;;;;;4.00;1.98;;;;;;;13.07;100.00;98833.41;4380532;32;20142;-77
2022/07/11 02:08:32;;;;;;;3.35;2.10;;;;;;;12.76;100.00;98810.97;4369846;32;20238;-78
2022/07/11 02:10:59;;;;;;;5.53;1.90;;;;;;;12.76;100.00;98783.94;4369952;32;20051;-78
2022/07/11 02:13:25;;;;;;;6.47;1.73;;;;;;;12.74;100.00;98810.41;4381893;32;20512;-78
2022/07/11 02:15:52;;;;;;;7.75;1.70;;;;;;;12.82;100.00;98831.50;4382286;32;20165;-78
2022/07/11 02:18:19;;;;;;;7.62;1.75;;;;;;;13.08;100.00;98846.66;4382702;32;20362;-77
2022/07/11 02:20:48;;;;;;;2.58;1.65;;;;;;;13.18;100.00;98831.47;4382841;32;20027;-78
2022/07/11 02:23:16;;;;;;;6.15;1.90;;;;;;;13.10;100.00;98843.66;4382624;32;20472;-77
2022/07/11 02:25:43;;;;;;;3.03;1.52;;;;;;;12.86;100.00;98843.37;4387637;32;20054;-77
2022/07/11 02:28:10;;;;;;;5.43;2.05;;;;;;;12.67;100.00;98808.78;4398075;32;20042;-79
2022/07/11 02:30:38;;;;;;;4.85;1.80;;;;;;;12.87;100.00;98842.31;4380458;32;20475;-76
2022/07/11 02:33:13;;;;;;;4.72;1.67;;;;;;;12.76;100.00;98846.88;4423134;32;20041;-79
2022/07/11 02:35:39;;;;;;;6.37;1.95;;;;;;;12.22;100.00;98807.62;4427396;32;20037;-80
2022/07/11 02:38:06;;;;;;;3.00;1.75;;;;;;;12.33;100.00;98809.28;4421994;32;20064;-80
2022/07/11 02:40:33;;;;;;;5.37;1.95;;;;;;;12.47;100.00;98860.06;4414114;32;20191;-79
2022/07/11 02:42:59;;;;;;;3.10;1.65;;;;;;;12.12;100.00;98799.50;4415864;32;20179;-79
2022/07/11 02:45:26;;;;;;;6.57;1.73;;;;;;;12.29;100.00;98810.88;4430657;32;20034;-79
2022/07/11 02:47:52;;;;;;;4.80;1.70;;;;;;;12.51;100.00;98809.88;4446709;32;20055;-79
2022/07/11 02:50:18;;;;;;;4.32;1.55;;;;;;;12.56;100.00;98828.75;4425873;32;20095;-79
2022/07/11 02:52:45;;;;;;;6.47;1.73;;;;;;;12.18;100.00;98779.53;4421169;32;20124;-79
2022/07/11 02:55:12;;;;;;;11.05;1.75;;;;;;;12.31;100.00;98853.81;4419567;32;20154;-80
2022/07/11 02:57:39;;;;;;;6.40;1.85;;;;;;;12.30;100.00;98807.13;4419090;32;20103;-80
2022/07/11 03:00:13;;;;;;;8.52;2.10;;;;;;;12.20;100.00;98809.78;4432808;32;20063;-80
2022/07/11 03:02:39;;;;;;;2.70;1.83;;;;;;;12.34;100.00;98786.59;4429050;32;20046;-79
2022/07/11 03:05:06;;;;;;;6.40;2.10;;;;;;;12.81;100.00;98846.06;4404305;32;20061;-78
2022/07/11 03:07:33;;;;;;;10.48;1.98;;;;;;;12.46;100.00;98826.03;4418187;32;20022;-78
2022/07/11 03:09:59;;;;;;;6.40;1.90;;;;;;;12.62;100.00;98843.91;4430775;32;20038;-79
2022/07/11 03:12:26;;;;;;;14.95;3.50;;;;;;;12.44;100.00;98842.50;4430464;32;20041;-81
2022/07/11 03:14:53;;;;;;;6.20;1.80;;;;;;;12.65;100.00;98859.59;4419234;32;20370;-79
2022/07/11 03:17:19;;;;;;;5.45;2.25;;;;;;;12.60;100.00;98819.03;4425673;32;20030;-80
2022/07/11 03:19:46;;;;;;;4.68;2.08;;;;;;;12.62;100.00;98837.66;4429999;32;20079;-78
2022/07/11 03:22:14;;;;;;;10.68;2.90;;;;;;;12.61;100.00;98855.78;4430062;32;20064;-79
2022/07/11 03:24:41;;;;;;;4.28;2.35;;;;;;;12.52;100.00;98816.88;4412434;32;20345;-77
2022/07/11 03:27:08;;;;;;;5.72;2.45;;;;;;;12.57;100.00;98813.38;4414046;32;20401;-78
2022/07/11 03:29:35;;;;;;;5.32;2.12;;;;;;;12.66;100.00;98817.97;4422571;32;20034;-77
2022/07/11 03:32:02;;;;;;;8.25;2.90;;;;;;;12.69;100.00;98812.03;4416170;32;20038;-78
2022/07/11 03:34:28;;;;;;;11.85;3.47;;;;;;;12.91;100.00;98851.50;4412597;32;20094;-79
2022/07/11 03:36:55;;;;;;;5.85;2.50;;;;;;;12.67;100.00;98840.41;4419607;32;20034;-79
2022/07/11 03:39:21;;;;;;;10.77;3.22;;;;;;;12.78;100.00;98857.41;4429981;32;20059;-78
2022/07/11 03:41:48;;;;;;;6.37;3.08;;;;;;;12.85;100.00;98857.97;4431851;32;20119;-79
2022/07/11 03:44:14;;;;;;;8.20;3.30;;;;;;;12.40;100.00;98814.44;4432005;32;20050;-77
2022/07/11 03:46:41;;;;;;;9.40;3.00;;;;;;;12.54;100.00;98814.72;4431924;32;20060;-79
2022/07/11 03:49:08;;;;;;;11.80;2.85;;;;;;;12.48;100.00;98813.09;4405411;32;20068;-79
2022/07/11 03:51:34;;;;;;;11.30;2.50;;;;;;;12.69;100.00;98860.66;4405592;32;20723;-79
2022/07/11 03:54:01;;;;;;;9.85;2.70;;;;;;;12.81;100.00;98851.47;4426827;32;20034;-79
2022/07/11 03:56:27;;;;;;;11.18;2.22;;;;;;;12.69;100.00;98851.75;4430384;32;20046;-80
2022/07/11 03:58:54;;;;;;;10.82;2.45;;;;;;;12.66;100.00;98817.97;4416427;32;20082;-81
2022/07/11 04:01:20;;;;;;;11.10;4.72;;;;;;;12.56;100.00;98773.91;4431299;32;20022;-78
2022/07/11 04:03:47;;;;;;;10.60;2.92;;;;;;;12.65;100.00;98827.16;4432873;32;20813;-78
2022/07/11 04:06:13;;;;;;;7.28;3.20;;;;;;;12.46;100.00;98797.16;4432594;32;20072;-81
2022/07/11 04:08:40;;;;;;;6.50;2.17;;;;;;;12.87;100.00;98855.81;4409043;32;20456;-79
2022/07/11 04:11:07;;;;;;;14.00;3.03;;;;;;;13.06;100.00;98859.59;4403390;32;20044;-79
2022/07/11 04:13:34;;;;;;;11.93;2.72;;;;;;;13.13;100.00;98863.94;4417509;32;20027;-78
2022/07/11 04:16:00;;;;;;;13.20;3.28;;;;;;;13.26;100.00;98852.59;4432259;32;20088;-82
2022/07/11 04:18:27;;;;;;;13.02;2.67;;;;;;;13.18;100.00;98850.41;4416375;32;20051;-82
2022/07/11 04:20:53;;;;;;;3.97;2.37;;;;;;;13.00;100.00;98811.22;4424906;32;20037;-81
2022/07/11 04:23:19;;;;;;;23.48;3.33;;;;;;;12.53;100.00;98794.19;4422815;32;20113;-81
2022/07/11 04:25:46;;;;;;;3.00;2.22;;;;;;;13.13;100.00;98836.91;4423348;32;20084;-80
2022/07/11 04:28:12;;;;;;;10.00;3.87;;;;;;;13.19;100.00;98847.44;4406678;32;20051;-80
2022/07/11 04:30:39;;;;;;;7.10;2.33;;;;;;;13.19;100.00;98828.50;4429086;32;20077;-79
2022/07/11 04:33:05;;;;;;;10.05;3.87;;;;;;;13.27;100.00;98830.69;4430561;32;20391;-80
2022/07/11 04:35:32;;;;;;;6.40;2.85;;;;;;;13.38;100.00;98826.09;4418507;32;20352;-81
2022/07/11 04:37:58;;;;;;;9.27;3.25;;;;;;;13.41;100.00;98860.69;4428773;32;20045;-81
2022/07/11 04:40:25;;;;;;;11.45;2.70;;;;;;;13.58;100.00;98875.84;4405435;32;20088;-79
2022/07/11 04:42:51;;;;;;;4.80;2.50;;;;;;;13.43;100.00;98853.13;4416224;32;20039;-80
2022/07/11 04:45:18;;;;;;;8.68;3.10;;;;;;;13.16;100.00;98860.69;4422584;32;20071;-79
2022/07/11 04:47:45;;;;;;;10.13;3.08;;;;;;;13.15;100.00;98813.13;4417300;32;20056;-80
2022/07/11 04:50:11;;;;;;;16.37;3.28;;;;;;;12.65;100.00;98773.16;4427700;32;20382;-79
2022/07/11 04:52:38;;;;;;;4.10;2.83;;;;;;;13.27;100.00;98816.34;4430789;32;20046;-80
2022/07/11 04:55:05;;;;;;;11.50;2.83;;;;;;;13.60;100.00;98846.59;4431001;32;20042;-80
2022/07/11 04:57:31;;;;;;;4.90;2.47;;;;;;;13.10;100.00;98800.44;4426708;32;20026;-83
2022/07/11 04:59:57;;;;;;;6.50;2.60;;;;;;;13.27;100.00;98821.75;4424864;32;20026;-80
2022/07/11 05:02:24;;;;;;;5.45;2.58;;;;;;;13.64;100.00;98853.06;4404945;32;20072;-73
2022/07/11 05:04:50;;;;;;;7.97;2.60;;;;;;;13.74;100.00;98847.66;4402532;32;20076;-73
2022/07/11 05:07:16;;;;;;;10.60;2.72;;;;;;;13.92;100.00;98842.72;4421458;32;20100;-73
2022/07/11 05:09:43;;;;;;;14.18;2.50;;;;;;;14.04;100.00;98850.53;4430214;32;20210;-73
2022/07/11 05:12:09;;;;;;;16.60;2.45;;;;;;;13.88;100.00;98782.13;4425558;32;20064;-73
2022/07/11 05:14:36;;;;;;;6.57;1.77;;;;;;;13.71;100.00;98767.03;4431936;32;20030;-75
2022/07/11 05:17:03;;;;;;;2.08;1.90;;;;;;;13.79;100.00;98801.62;4417286;32;20050;-73
2022/07/11 05:19:29;;;;;;;6.10;2.15;;;;;;;14.43;100.00;98853.31;4431734;32;20418;-74
2022/07/11 05:21:55;;;;;;;9.18;2.50;;;;;;;14.44;100.00;98863.09;4430085;32;20064;-75
2022/07/11 05:24:22;;;;;;;8.45;1.87;;;;;;;13.88;100.00;98782.13;4430666;32;20034;-74
2022/07/11 05:26:48;;;;;;;11.05;2.40;;;;;;;14.34;100.00;98871.25;4431425;32;20119;-73
2022/07/11 05:29:14;;;;;;;7.70;2.03;;;;;;;14.20;100.00;98821.50;4434919;32;20078;-73
2022/07/11 05:31:42;;;;;;;8.93;2.62;;;;;;;14.20;100.00;98854.81;4432752;32;20372;-73
2022/07/11 05:34:08;;;;;;;10.32;1.98;;;;;;;14.62;100.00;98852.72;4431251;32;20099;-74
2022/07/11 05:36:35;;;;;;;1.62;1.50;;;;;;;14.94;100.00;98870.41;4428067;32;20053;-73
2022/07/11 05:39:01;;;;;;;4.20;1.87;;;;;;;14.61;100.00;98848.38;4430433;32;20038;-74
2022/07/11 05:41:28;;;;;;;6.07;1.62;;;;;;;14.94;100.00;98879.34;4417921;32;20026;-73
2022/07/11 05:43:54;;;;;;;13.85;1.85;;;;;;;14.48;100.00;98834.34;4408301;32;20052;-75
2022/07/11 05:46:20;;;;;;;9.65;1.60;;;;;;;14.79;100.00;98877.53;4417179;32;20063;-74
2022/07/11 05:48:47;;;;;;;4.03;1.60;;;;;;;14.88;100.00;98886.69;4419484;32;20058;-73
2022/07/11 05:51:13;;;;;;;2.47;1.60;;;;;;;15.00;100.00;98874.69;4417540;32;20050;-74
2022/07/11 05:53:40;;;;;;;2.83;1.55;;;;;;;14.85;100.00;98849.31;4428949;32;20080;-73
2022/07/11 05:56:07;;;;;;;3.05;2.00;;;;;;;14.17;100.00;98774.94;4426299;32;20029;-73
2022/07/11 05:58:33;;;;;;;13.10;1.90;;;;;;;14.89;100.00;98872.03;4431461;32;20063;-73
2022/07/11 06:01:00;;;;;;;9.88;2.10;;;;;;;14.77;100.00;98887.84;4428190;32;20076;-73
2022/07/11 06:03:27;;;;;;;2.30;1.55;;;;;;;14.70;100.00;98876.50;4414600;32;20383;-75
2022/07/11 06:05:53;;;;;;;2.62;1.87;;;;;;;14.89;100.00;98891.03;4414993;32;20029;-73
2022/07/11 06:11:04;;;;;;;3.40;1.70;;;;;;;14.94;100.00;98873.09;4415832;32;20400;-73
2022/07/11 06:13:31;;;;;;;8.73;2.10;;;;;;;14.95;100.00;98880.13;4414576;32;20067;-74
2022/07/11 06:15:58;;;;;;;7.85;1.77;;;;;;;14.94;100.00;98876.62;4413907;32;20030;-78
2022/07/11 06:18:25;;;;;;;6.90;2.95;;;;;;;14.92;100.00;98875.28;4414928;32;20079;-74
2022/07/11 06:20:51;;;;;;;4.80;1.60;;;;;;;14.58;100.00;98857.03;4421901;32;20067;-72
2022/07/11 06:23:18;;;;;;;3.60;2.03;;;;;;;14.96;100.00;98851.94;4416787;32;20042;-74
2022/07/11 06:25:44;;;;;;;10.70;1.90;;;;;;;15.00;100.00;98834.03;4423178;32;20067;-74
2022/07/11 06:28:11;;;;;;;7.93;2.37;;;;;;;15.17;100.00;98864.25;4404417;32;20050;-74
2022/07/11 06:30:37;;;;;;;4.18;2.20;;;;;;;15.39;100.00;98881.97;4410601;32;20035;-74
2022/07/11 06:33:04;;;;;;;4.25;2.17;;;;;;;14.86;100.00;98845.50;4415934;32;20039;-74
2022/07/11 06:35:31;;;;;;;13.55;1.98;;;;;;;15.23;100.00;98859.59;4415898;32;20050;-74
2022/07/11 06:37:57;;;;;;;5.43;1.85;;;;;;;15.23;100.00;98830.56;4415201;32;20046;-74
2022/07/11 06:40:23;;;;;;;4.10;1.70;;;;;;;15.33;100.00;98826.94;4413147;32;20034;-75
2022/07/11 06:42:50;;;;;;;5.07;1.70;;;;;;;15.59;100.00;98851.91;4415639;32;20170;-74
2022/07/11 06:45:16;;;;;;;7.80;1.65;;;;;;;15.38;100.00;98835.03;4415704;32;20062;-74
2022/07/11 06:47:43;;;;;;;4.25;1.70;;;;;;;15.52;100.00;98867.72;4423329;32;20103;-74
2022/07/11 06:50:09;;;;;;;2.33;1.60;;;;;;;15.15;100.00;98804.06;4430908;32;20419;-74
2022/07/11 06:52:36;;;;;;;5.53;2.35;;;;;;;15.48;100.00;98834.13;4425687;32;20433;-73
2022/07/11 06:55:03;;;;;;;2.28;1.37;;;;;;;15.40;100.00;98838.28;4414425;32;20030;-74
2022/07/11 06:57:29;;;;;;;5.15;1.45;;;;;;;15.58;100.00;98844.88;4415213;32;20085;-74
2022/07/11 06:59:56;;;;;;;5.57;1.75;;;;;;;15.69;100.00;98836.63;4418224;32;20046;-74
2022/07/11 07:02:27;;;;;;;2.62;1.27;;;;;;;15.43;100.00;98815.19;4429297;32;20034;-77
2022/07/11 07:04:54;;;;;;;3.45;1.35;;;;;;;15.67;100.00;98871.38;4423896;32;20050;-75
2022/07/11 07:07:20;;;;;;;2.03;1.58;;;;;;;15.70;100.00;98846.38;4416461;32;20115;-75
2022/07/11 07:09:53;;;;;;;7.43;1.50;;;;;;;15.95;100.00;98881.41;4418735;32;20066;-75
2022/07/11 07:12:21;;;;;;;7.18;1.60;;;;;;;15.88;100.00;98885.59;4401722;32;20046;-75
2022/07/11 07:14:48;;;;;;;6.37;1.95;;;;;;;16.09;100.00;98880.75;4425683;32;20034;-74
2022/07/11 07:17:14;;;;;;;5.97;1.70;;;;;;;15.86;100.00;98885.88;4419389;32;20037;-74
2022/07/11 07:19:40;;;;;;;14.13;6.60;;;;;;;16.00;100.00;98882.47;4413461;32;20060;-75
2022/07/11 07:22:08;;;;;;;3.05;1.17;;;;;;;16.16;100.00;98881.19;4414705;32;20052;-74
2022/07/11 07:24:36;;;;;;;4.43;1.40;;;;;;;16.07;100.00;98858.50;4438832;32;20789;-73
2022/07/11 07:27:03;;;;;;;7.37;1.70;;;;;;;16.12;100.00;98888.31;4439085;32;20045;-74
2022/07/11 07:29:30;;;;;;;3.37;1.20;;;;;;;16.00;100.00;98860.75;4439200;32;20026;-74
2022/07/11 07:31:57;;;;;;;5.82;1.23;;;;;;;16.17;100.00;98883.59;4433692;32;20161;-74
2022/07/11 07:34:23;;;;;;;6.20;1.25;;;;;;;16.09;100.00;98850.87;4435610;32;20089;-75
2022/07/11 07:36:49;;;;;;;5.75;1.10;;;;;;;16.35;100.00;98883.94;4433337;32;20080;-74
2022/07/11 07:39:16;;;;;;;6.57;2.25;;;;;;;16.17;100.00;98877.38;4427016;32;20195;-76
2022/07/11 07:41:42;;;;;;;2.87;1.75;;;;;;;15.94;100.00;98832.84;4432349;32;20428;-75
2022/07/11 07:44:09;;;;;;;3.47;1.05;;;;;;;16.03;100.00;98838.44;4433759;32;20344;-74
2022/07/11 07:46:36;;;;;;;4.57;1.37;;;;;;;16.16;100.00;98864.87;4429969;32;20070;-74
2022/07/11 07:49:02;;;;;;;5.50;1.87;;;;;;;16.03;100.00;98833.00;4404135;32;20053;-74
2022/07/11 07:51:30;;;;;;;5.12;1.25;;;;;;;16.18;100.00;98881.72;4417302;32;20111;-74
2022/07/11 07:53:56;;;;;;;4.03;1.37;;;;;;;16.12;100.00;98878.25;4417109;32;20356;-73
2022/07/11 07:56:23;;;;;;;5.37;1.15;;;;;;;16.02;100.00;98861.25;4417803;32;20042;-74
2022/07/11 07:58:51;;;;;;;1.42;1.30;;;;;;;16.06;100.00;98876.69;4421402;32;20069;-73
2022/07/11 08:01:36;;;;;;;6.15;2.00;;;;;;;16.02;100.00;98872.13;4422937;32;20039;-75
2022/07/11 08:04:03;;;;;;;3.92;1.67;;;;;;;16.08;100.00;98895.41;4417994;32;20039;-73
2022/07/11 08:06:30;;;;;;;7.78;1.33;;;;;;;16.13;100.00;98888.03;4417310;32;20495;-74
2022/07/11 08:08:57;;;;;;;7.87;1.15;;;;;;;16.09;100.00;98886.16;4438112;32;20038;-73
2022/07/11 08:11:24;;;;;;;3.05;1.20;;;;;;;16.10;100.00;98887.78;4443090;32;20034;-73
2022/07/11 08:13:51;;;;;;;6.25;1.23;;;;;;;16.13;100.00;98892.62;4436873;32;20462;-73
2022/07/11 08:16:18;;;;;;;6.20;1.58;;;;;;;15.98;100.00;98896.34;4416651;32;20033;-75
2022/07/11 08:18:45;;;;;;;1.85;1.50;;;;;;;15.88;100.00;98863.88;4433801;32;20030;-75
2022/07/11 08:21:12;;;;;;;4.62;1.27;;;;;;;15.90;100.00;98884.19;4443669;32;20053;-75
2022/07/11 08:23:38;;;;;;;2.28;1.12;;;;;;;16.01;100.00;98889.53;4432825;32;20187;-74
2022/07/11 08:26:05;;;;;;;3.03;1.58;;;;;;;15.79;100.00;98839.25;4435426;32;20175;-73
2022/07/11 08:28:31;;;;;;;3.50;1.33;;;;;;;16.08;100.00;98873.69;4417345;32;20068;-73
2022/07/11 08:30:57;;;;;;;3.22;1.00;;;;;;;15.60;100.00;98842.69;4403680;32;20042;-73
2022/07/11 08:33:24;;;;;;;4.70;1.30;;;;;;;15.74;100.00;98875.38;4404301;32;20082;-73
2022/07/11 08:35:50;;;;;;;3.72;0.80;;;;;;;15.38;100.00;98807.09;4431231;32;20394;-73
2022/07/11 08:38:16;;;;;;;0.73;0.73;;;;;;;15.76;100.00;98883.22;4432227;32;20045;-73
2022/07/11 08:40:43;;;;;;;1.48;0.90;;;;;;;15.46;100.00;98847.19;4430329;32;20060;-75
2022/07/11 08:43:15;;;;;;;7.78;0.80;;;;;;;15.44;100.00;98860.19;4432286;32;20129;-73
2022/07/11 08:45:41;;;;;;;2.03;1.17;;;;;;;15.38;100.00;98854.03;4432596;32;20087;-74
2022/07/11 08:48:11;;;;;;;3.95;1.58;;;;;;;15.51;100.00;98865.28;4431914;32;20042;-73
2022/07/11 08:50:37;;;;;;;10.80;1.23;;;;;;;15.68;100.00;98886.56;4423874;32;20100;-72
2022/07/11 08:53:04;;;;;;;0.60;0.60;;;;;;;15.50;100.00;98872.63;4421296;32;20087;-73
2022/07/11 08:55:31;;;;;;;1.55;0.90;;;;;;;15.53;100.00;98891.06;4432200;32;20031;-75
2022/07/11 08:57:59;;;;;;;2.60;1.23;;;;;;;15.50;100.00;98890.81;4426297;32;20049;-78
2022/07/11 09:00:25;;;;;;;1.85;1.08;;;;;;;15.31;100.00;98850.03;4432862;32;20034;-77
2022/07/11 09:03:00;;;;;;;4.50;1.15;;;;;;;15.29;100.00;98846.81;4432210;32;20034;-77
2022/07/11 09:05:28;;;;;;;2.35;0.90;;;;;;;15.33;100.00;98902.09;4432439;32;20034;-77
2022/07/11 09:07:54;;;;;;;2.45;1.33;;;;;;;15.08;100.00;98822.56;4427134;32;20053;-76
2022/07/11 09:10:21;;;;;;;7.45;1.40;;;;;;;15.39;100.00;98879.25;4403161;32;20470;-77
2022/07/11 09:13:01;;;;;;;3.08;0.90;;;;;;;15.58;100.00;98877.44;4414366;32;20030;-79
2022/07/11 09:15:32;;;;;;;4.93;0.90;;;;;;;15.56;100.00;98862.53;4420000;32;20087;-77
2022/07/11 09:18:26;;;;;;;4.20;1.90;;;;;;;15.73;100.00;98878.38;4402209;32;20344;-77
2022/07/11 09:26:38;;;;;;;4.40;1.08;;;;;;;15.15;100.00;98852.88;4414455;32;20038;-77
2022/07/11 09:29:20;;;;;;;0.75;0.75;;;;;;;15.25;100.00;98860.09;4400705;32;20045;-78
2022/07/11 09:31:49;;;;;;;2.62;1.05;;;;;;;15.51;100.00;98852.56;4423141;32;20353;-77
2022/07/11 09:34:20;;;;;;;2.50;0.70;;;;;;;15.85;100.00;98864.44;4418217;32;20044;-76
2022/07/11 09:36:50;;;;;;;2.70;0.70;;;;;;;15.78;100.00;98856.66;4430742;32;20050;-76
2022/07/11 09:39:18;;;;;;;1.08;0.57;;;;;;;16.17;100.00;98888.25;4429036;32;20088;-77
2022/07/11 09:41:46;;;;;;;0.65;0.60;;;;;;;16.10;100.00;98857.94;4416000;32;20064;-81
2022/07/11 09:44:19;;;;;;;1.90;0.65;;;;;;;16.32;100.00;98871.75;4422882;32;20084;-76
2022/07/11 09:46:49;;;;;;;1.45;1.35;;;;;;;16.48;100.00;98876.97;4419397;32;20117;-77
2022/07/11 09:49:28;;;;;;;0.60;0.60;;;;;;;16.42;100.00;98867.28;4401117;32;20042;-75
2022/07/11 09:51:56;;;;;;;7.87;0.68;;;;;;;16.29;100.00;98837.03;4415530;32;20046;-77
2022/07/11 09:54:22;;;;;;;0.60;0.60;;;;;;;16.65;100.00;98866.41;4415703;32;20076;-77
2022/07/11 09:56:51;;;;;;;1.37;0.93;;;;;;;16.78;100.00;98831.44;4415256;32;20034;-79
2022/07/11 09:59:18;;;;;;;0.50;0.50;;;;;;;16.77;100.00;98840.69;4415083;32;20042;-79
2022/07/11 10:01:45;;;;;;;3.70;0.52;;;;;;;16.90;100.00;98834.56;4423625;32;20065;-77
2022/07/11 10:04:11;;;;;;;3.42;0.57;;;;;;;17.41;100.00;98860.91;4427121;32;20050;-76
2022/07/11 10:06:38;;;;;;;1.17;0.70;;;;;;;17.13;100.00;98853.75;4416132;32;20372;-77
2022/07/11 10:09:05;;;;;;;8.35;0.55;;;;;;;17.18;100.00;98837.34;4431550;32;20387;-78
2022/07/11 10:11:32;;;;;;;0.50;0.50;;;;;;;17.45;100.00;98879.34;4431241;32;20457;-79
2022/07/11 10:14:00;;;;;;;1.45;0.60;;;;;;;17.75;100.00;98870.63;4421521;32;20051;-79
2022/07/11 10:16:27;;;;;;;0.40;0.40;;;;;;;17.87;100.00;98867.44;4415855;32;20038;-78
2022/07/11 10:19:14;;;;;;;0.43;0.43;;;;;;;17.73;100.00;98834.72;4415583;32;20035;-76
2022/07/11 10:22:07;;;;;;;0.60;0.60;;;;;;;17.90;100.00;98868.75;4415410;32;20081;-79
2022/07/11 10:24:52;;;;;;;0.52;0.50;;;;;;;17.69;100.00;98816.56;4407362;32;20038;-77
2022/07/11 10:27:34;;;;;;;2.10;0.50;;;;;;;17.98;100.00;98873.50;4414714;32;20046;-77
2022/07/11 10:30:01;;;;;;;6.37;0.50;;;;;;;17.90;100.00;98861.41;4424293;32;20091;-78
2022/07/11 10:32:28;;;;;;;2.42;0.82;;;;;;;17.68;100.00;98828.56;4421659;32;20098;-79
2022/07/11 10:35:08;;;;;;;0.50;0.50;;;;;;;17.69;100.00;98874.56;4415723;32;20042;-78
2022/07/11 10:37:50;;;;;;;6.43;0.67;;;;;;;17.56;100.00;98878.06;4412358;32;20083;-79
2022/07/11 10:40:39;;;;;;;2.80;0.60;;;;;;;17.11;100.00;98867.66;4425750;32;20035;-75
2022/07/11 10:43:06;;;;;;;0.70;0.55;;;;;;;16.67;100.00;98831.59;4416309;32;20223;-76
2022/07/11 10:45:50;;;;;;;0.55;0.55;;;;;;;16.96;100.00;98844.25;4415190;32;20043;-78
2022/07/11 10:48:17;;;;;;;3.20;0.70;;;;;;;16.81;100.00;98814.53;4415542;32;20076;-77
2022/07/11 10:50:43;;;;;;;1.17;0.60;;;;;;;16.67;100.00;98777.25;4424870;32;20161;-77
2022/07/11 10:53:20;;;;;;;8.20;1.05;;;;;;;17.30;100.00;98870.34;4427976;32;20033;-78
2022/07/11 10:56:07;;;;;;;0.77;0.77;;;;;;;17.20;100.00;98837.84;4428202;32;20057;-77
2022/07/11 10:58:33;;;;;;;1.55;0.60;;;;;;;17.57;100.00;98869.59;4430489;32;20375;-78
2022/07/11 11:01:16;;;;;;;0.60;0.60;;;;;;;17.21;100.00;98818.50;4421054;32;20046;-77
2022/07/11 11:03:43;;;;;;;1.75;0.60;;;;;;;17.34;100.00;98846.88;4414987;32;20030;-74
2022/07/11 11:06:11;;;;;;;0.60;0.60;;;;;;;17.70;100.00;98840.78;4415411;32;21001;-74
2022/07/11 11:08:40;;;;;;;1.17;0.70;;;;;;;18.61;100.00;98866.47;4415283;32;20050;-73
2022/07/11 11:11:26;;;;;;;0.90;0.60;;;;;;;19.13;100.00;98881.66;4428690;32;20072;-74
2022/07/11 11:14:28;;;;;;;1.00;0.80;;;;;;;18.98;100.00;98871.94;4430058;32;20042;-73
2022/07/11 11:16:55;;;;;;;2.95;0.68;;;;;;;18.66;100.00;98873.72;4353092;33;20361;-74
2022/07/11 11:19:46;;;;;;;0.70;0.70;;;;;;;18.97;100.00;98848.50;4352578;33;20062;-73
2022/07/11 11:22:14;;;;;;;0.65;0.60;;;;;;;19.46;100.00;98876.75;4340368;33;20171;-76
2022/07/11 11:24:45;;;;;;;0.40;0.40;;;;;;;20.35;100.00;98862.34;4352313;33;20090;-74
2022/07/11 11:27:25;;;;;;;0.57;0.57;;;;;;;20.28;100.00;98863.63;4348271;33;20119;-74
2022/07/11 11:29:54;;;;;;;5.78;0.60;;;;;;;20.06;100.00;98844.59;4341890;33;20483;-74
2022/07/11 11:32:30;;;;;;;0.50;0.50;;;;;;;19.71;100.00;98849.91;4352939;33;20071;-74
2022/07/11 11:34:58;;;;;;;0.40;0.40;;;;;;;18.86;100.00;98889.66;4352257;33;20039;-75
2022/07/11 11:37:25;;;;;;;6.75;0.50;;;;;;;18.32;100.00;98855.94;4361559;32;20051;-73